CYBC

Details ICAO CYBC (YBC)
Name BAIE COMEAU
Region Canada
Timezone America/Montreal (UTC-5.0)
Plans Departing 26
Arriving 27
Stats Elevation 71 ft / 22 m (AMSL)
Location 49.132270° -68.207207°
Runways 1
Magnetic Variation 17.848° W
Sunrise 2017-12-16 12:23:11 UTC / 2017-12-16 07:23:11 Local
Sunset 2017-12-16 20:36:41 UTC / 2017-12-16 15:36:41 Local
Advertisement - Login to hide

Runways

ID Width Length Bearing (true) Bearing (mag) Surface Threshold Offset Overrun Length
10 150 ft / 46 m 5,984 ft / 1,824 m 80.50° 98.35° Asphalt 0 ft / 0 m 0 ft / 0 m
28 150 ft / 46 m 5,984 ft / 1,824 m 260.52° 278.37° Asphalt 0 ft / 0 m 0 ft / 0 m

Approach Navaids

Runway Type Ident Frequency Range Bearing (true) Bearing (mag) Slope Elevation
10 Localiser IBC 110.30 MHz 18 nm / 33 km 79.38° 97.22° - 66 ft / 20 m (AMSL)
10 Glidescope IBC 110.30 MHz 18 nm / 33 km 100.00° 117.85° 2.50° 69 ft / 21 m (AMSL)

Map

Weather


0- 5 10 15 20 25 30 35+ Temperature / ° C

Clouds and Precipitation
Forecast for 2017-12-16 18:00 UTC. Updated 4 minutes ago

Ground ~20,000 ft ~40,000 ft Winds

METAR

CYBC 161300Z AUTO 28009KT 9SM BKN029 BKN170 M19/M24 A2978 RMK SLP089

TAF

TAF CYBC 160739Z 1608/1620 29008KT P6SM SKC FM161600 29012KT P6SM SCT140 BECMG 1618/1620 29010G20KT RMK FCST BASED ON AUTO OBS. NXT FCST BY 161400Z

Frequencies

Approach 134.65 MHz MONTREAL CNTR
Warning: Do not use this data for real-world aviation or navigation. No guarantee of current accuracy is given.